Time;durP1;ratioP1;P1;durP2;ratioP2;P2;SDS_P1;SDS_P2;PMS_P1;PMS_P2;Temp;Humidity;BMP_temperature;BMP_pressure;BME280_temperature;BME280_humidity;BME280_pressure;Samples;Min_cycle;Max_cycle;Signal;HPM_P1;HPM_P2
2023/12/17 00:00:03;;;;;;;0.38;0.38;;;9.40;99.90;;;;;;5093940;28;20084;-66
2023/12/17 00:02:29;;;;;;;3.03;0.63;;;8.30;99.90;;;;;;5087450;28;20040;-66
2023/12/17 00:04:55;;;;;;;0.70;0.70;;;11.50;99.90;;;;;;5087081;28;20422;-66
2023/12/17 00:07:20;;;;;;;0.40;0.40;;;9.90;99.90;;;;;;5093592;28;20044;-69
2023/12/17 00:09:46;;;;;;;0.35;0.35;;;10.90;99.90;;;;;;5094075;28;20491;-65
2023/12/17 00:12:12;;;;;;;0.43;0.43;;;9.00;99.90;;;;;;5093193;28;20541;-67
2023/12/17 00:14:37;;;;;;;0.60;0.60;;;10.70;99.90;;;;;;5092478;28;20500;-66
2023/12/17 00:17:03;;;;;;;3.72;1.45;;;9.50;99.90;;;;;;5093221;28;20044;-66
2023/12/17 00:19:29;;;;;;;1.25;1.15;;;8.60;99.90;;;;;;5092770;28;20059;-68
2023/12/17 00:21:54;;;;;;;0.70;0.70;;;8.80;99.90;;;;;;5092269;28;20043;-65
2023/12/17 00:24:20;;;;;;;27.02;1.25;;;8.70;99.90;;;;;;5092159;28;20044;-68
2023/12/17 00:26:45;;;;;;;5.18;0.65;;;11.10;99.90;;;;;;5090259;28;20052;-65
2023/12/17 00:29:12;;;;;;;1.05;1.02;;;10.20;99.90;;;;;;5092210;28;20118;-66
2023/12/17 00:31:37;;;;;;;8.10;1.33;;;8.60;99.90;;;;;;5089916;28;20135;-66
2023/12/17 00:34:04;;;;;;;3.63;0.45;;;11.20;99.90;;;;;;5092016;28;20177;-70
2023/12/17 00:36:29;;;;;;;0.63;0.63;;;9.40;99.90;;;;;;5091992;28;20048;-67
2023/12/17 00:38:55;;;;;;;1.13;1.02;;;7.90;99.90;;;;;;5094224;28;20047;-64
2023/12/17 00:41:21;;;;;;;0.73;0.73;;;7.90;99.90;;;;;;5093114;28;20079;-65
2023/12/17 00:43:46;;;;;;;0.82;0.55;;;10.90;99.90;;;;;;5093982;28;20384;-65
2023/12/17 00:46:12;;;;;;;0.43;0.43;;;8.90;99.90;;;;;;5092742;28;20058;-65
2023/12/17 00:48:38;;;;;;;0.70;0.60;;;10.60;99.90;;;;;;5093381;28;20475;-65
2023/12/17 00:51:04;;;;;;;2.35;1.30;;;11.20;99.90;;;;;;5091969;28;20396;-65
2023/12/17 00:53:29;;;;;;;;;;;10.30;99.90;;;;;;5093704;28;20064;-65
2023/12/17 00:55:55;;;;;;;1.00;0.77;;;10.80;99.90;;;;;;5092330;28;19951;-65
2023/12/17 00:58:21;;;;;;;0.40;0.40;;;9.80;99.90;;;;;;5092700;28;20376;-65
2023/12/17 01:00:46;;;;;;;2.97;0.82;;;8.30;99.90;;;;;;5090462;28;20472;-65
2023/12/17 01:03:12;;;;;;;1.58;1.35;;;11.60;99.90;;;;;;5092727;28;20432;-66
2023/12/17 01:05:38;;;;;;;1.20;1.10;;;8.40;99.90;;;;;;5091413;28;20054;-65
2023/12/17 01:08:03;;;;;;;0.40;0.40;;;11.00;99.90;;;;;;5092399;28;20048;-67
2023/12/17 01:10:29;;;;;;;0.57;0.32;;;11.20;99.90;;;;;;5091373;28;20395;-65
2023/12/17 01:12:55;;;;;;;1.10;0.60;;;10.20;99.90;;;;;;5092725;28;20051;-65
2023/12/17 01:15:20;;;;;;;1.10;0.55;;;8.00;99.90;;;;;;5091751;28;20036;-66
2023/12/17 01:17:46;;;;;;;0.52;0.52;;;10.60;99.90;;;;;;5092697;28;20047;-65
2023/12/17 01:20:12;;;;;;;1.33;1.23;;;8.30;99.90;;;;;;5091278;28;20043;-65
2023/12/17 01:22:37;;;;;;;0.95;0.95;;;11.80;99.90;;;;;;5092562;28;20043;-64
2023/12/17 01:25:04;;;;;;;1.98;0.80;;;11.70;99.90;;;;;;5090969;28;20098;-65
2023/12/17 01:27:30;;;;;;;0.50;0.50;;;11.80;99.90;;;;;;5092607;28;20040;-65
2023/12/17 01:29:56;;;;;;;0.82;0.75;;;8.30;99.90;;;;;;5091385;28;20050;-67
2023/12/17 01:32:21;;;;;;;1.25;1.17;;;11.20;99.90;;;;;;5091962;28;20079;-66
2023/12/17 01:34:47;;;;;;;0.55;0.55;;;8.30;99.90;;;;;;5090000;28;20032;-65
2023/12/17 01:37:13;;;;;;;0.60;0.60;;;8.30;99.90;;;;;;5080763;28;20056;-65
2023/12/17 01:39:39;;;;;;;0.30;0.30;;;8.00;99.90;;;;;;5072479;28;20056;-67
2023/12/17 01:42:05;;;;;;;0.45;0.45;;;9.60;99.90;;;;;;5072703;28;20109;-65
2023/12/17 01:44:30;;;;;;;0.40;0.40;;;11.50;99.90;;;;;;5071884;28;20056;-67
2023/12/17 01:46:56;;;;;;;1.02;0.73;;;10.80;99.90;;;;;;5073174;28;20056;-66
2023/12/17 01:49:22;;;;;;;;;;;11.00;99.90;;;;;;5073339;28;20051;-66
2023/12/17 01:51:49;;;;;;;0.60;0.60;;;11.00;99.90;;;;;;5071727;28;19921;-66
2023/12/17 01:54:15;;;;;;;0.25;0.25;;;11.00;99.90;;;;;;5073368;28;20048;-65
2023/12/17 01:56:41;;;;;;;0.70;0.35;;;11.40;99.90;;;;;;5073193;28;20169;-66
2023/12/17 01:59:08;;;;;;;;;;;10.00;99.90;;;;;;5073953;28;20131;-66
2023/12/17 02:01:34;;;;;;;2.03;0.77;;;8.40;99.90;;;;;;5073108;28;20081;-66
2023/12/17 02:04:00;;;;;;;2.08;1.77;;;11.10;99.90;;;;;;5073029;28;20119;-67
2023/12/17 02:06:25;;;;;;;0.98;0.98;;;9.70;99.90;;;;;;5072721;28;20476;-65
2023/12/17 02:08:51;;;;;;;1.30;1.08;;;8.90;99.90;;;;;;5072178;28;20063;-64
2023/12/17 02:11:17;;;;;;;3.10;0.43;;;10.30;99.90;;;;;;5072822;28;20052;-65
2023/12/17 02:13:42;;;;;;;4.45;1.35;;;8.20;99.90;;;;;;5073106;28;20056;-66
2023/12/17 02:16:09;;;;;;;0.50;0.50;;;8.40;99.90;;;;;;5072088;28;20165;-66
2023/12/17 02:18:35;;;;;;;1.35;0.95;;;11.60;99.90;;;;;;5073499;28;20123;-65
2023/12/17 02:21:02;;;;;;;8.43;0.88;;;9.00;99.90;;;;;;5072588;28;20080;-66
2023/12/17 02:23:28;;;;;;;0.38;0.38;;;8.30;99.90;;;;;;5073721;28;20087;-65
2023/12/17 02:25:54;;;;;;;0.28;0.28;;;9.70;99.90;;;;;;5072657;28;20132;-69
2023/12/17 02:28:20;;;;;;;0.63;0.63;;;9.20;99.90;;;;;;5072875;28;20131;-65
2023/12/17 02:30:45;;;;;;;1.25;1.17;;;11.00;99.90;;;;;;5072994;28;20405;-65
2023/12/17 02:33:11;;;;;;;0.47;0.47;;;8.10;99.90;;;;;;5073249;28;20036;-65
2023/12/17 02:35:37;;;;;;;0.38;0.38;;;10.00;99.90;;;;;;5084530;28;20419;-65
2023/12/17 02:38:02;;;;;;;0.50;0.50;;;10.30;99.90;;;;;;5091272;28;20040;-70
2023/12/17 02:40:28;;;;;;;1.90;0.90;;;11.00;99.90;;;;;;5091804;28;20056;-66
2023/12/17 02:42:54;;;;;;;0.52;0.52;;;8.10;99.90;;;;;;5072529;28;20050;-65
2023/12/17 02:45:19;;;;;;;0.57;0.57;;;11.30;99.90;;;;;;5072619;28;20080;-65
2023/12/17 02:47:45;;;;;;;0.90;0.90;;;8.10;99.90;;;;;;5073087;28;20052;-66
2023/12/17 02:50:11;;;;;;;1.05;0.50;;;10.30;99.90;;;;;;5072138;28;20045;-66
2023/12/17 02:52:36;;;;;;;0.85;0.85;;;10.80;99.90;;;;;;5072677;28;20135;-66
2023/12/17 02:55:02;;;;;;;0.25;0.25;;;8.60;99.90;;;;;;5072560;28;20044;-65
2023/12/17 02:57:29;;;;;;;0.68;0.68;;;11.50;99.90;;;;;;5073663;28;20044;-65
2023/12/17 02:59:55;;;;;;;0.57;0.57;;;10.20;99.90;;;;;;5072826;28;20048;-65
2023/12/17 03:02:20;;;;;;;0.63;0.63;;;10.10;99.90;;;;;;5073359;28;20036;-66
2023/12/17 03:04:47;;;;;;;0.52;0.52;;;8.40;99.90;;;;;;5072308;28;20515;-65
2023/12/17 03:07:13;;;;;;;0.28;0.28;;;8.20;99.90;;;;;;5073430;28;20040;-67
2023/12/17 03:09:38;;;;;;;0.52;0.52;;;10.00;99.90;;;;;;5072240;28;20105;-65
2023/12/17 03:12:04;;;;;;;0.70;0.40;;;11.50;99.90;;;;;;5073180;28;20086;-65
2023/12/17 03:14:33;;;;;;;0.47;0.47;;;7.90;99.90;;;;;;5072077;28;20487;-66
2023/12/17 03:16:59;;;;;;;0.47;0.47;;;10.40;99.90;;;;;;5073115;28;20098;-66
2023/12/17 03:19:25;;;;;;;0.47;0.47;;;8.20;99.90;;;;;;5072147;28;20052;-65
2023/12/17 03:21:50;;;;;;;0.85;0.68;;;11.10;99.90;;;;;;5072665;28;20044;-65
2023/12/17 03:24:16;;;;;;;1.50;1.02;;;11.20;99.90;;;;;;5071220;28;20080;-66
2023/12/17 03:26:42;;;;;;;0.35;0.35;;;11.30;99.90;;;;;;5071239;28;20045;-66
2023/12/17 03:29:07;;;;;;;0.32;0.32;;;11.40;99.90;;;;;;5071881;28;20049;-67
2023/12/17 03:31:33;;;;;;;0.73;0.73;;;9.60;99.90;;;;;;5072775;28;20519;-65
2023/12/17 03:34:00;;;;;;;0.95;0.52;;;10.60;99.90;;;;;;5072373;28;20131;-65
2023/12/17 03:36:26;;;;;;;0.55;0.50;;;9.30;99.90;;;;;;5085053;28;20045;-66
2023/12/17 03:38:51;;;;;;;0.90;0.90;;;8.50;99.90;;;;;;5070466;28;20040;-66
2023/12/17 03:41:25;;;;;;;0.57;0.57;;;8.20;99.90;;;;;;5071113;28;20067;-66
2023/12/17 03:43:53;;;;;;;0.57;0.57;;;8.00;99.90;;;;;;5071228;28;20056;-68
2023/12/17 03:46:20;;;;;;;0.95;0.77;;;8.80;99.90;;;;;;5076840;28;20055;-65
2023/12/17 03:48:46;;;;;;;0.20;0.20;;;10.10;99.90;;;;;;5090884;28;20063;-65
2023/12/17 03:51:12;;;;;;;1.17;0.65;;;9.90;99.90;;;;;;5077276;28;20044;-65
2023/12/17 03:53:38;;;;;;;0.35;0.35;;;8.10;99.90;;;;;;5090700;28;20054;-65
2023/12/17 03:56:08;;;;;;;0.60;0.60;;;9.10;99.90;;;;;;5090396;28;20036;-66
2023/12/17 03:58:34;;;;;;;0.68;0.68;;;9.80;99.90;;;;;;5089781;28;20052;-65
2023/12/17 04:01:01;;;;;;;0.68;0.68;;;8.30;99.90;;;;;;5090730;28;20716;-65
2023/12/17 04:03:26;;;;;;;0.57;0.57;;;8.10;99.90;;;;;;5090091;28;20063;-65
2023/12/17 04:05:52;;;;;;;0.85;0.68;;;10.80;99.90;;;;;;5090339;28;20056;-65
2023/12/17 04:08:17;;;;;;;0.95;0.90;;;11.00;99.90;;;;;;5089867;28;20060;-67
2023/12/17 04:10:43;;;;;;;0.60;0.57;;;10.80;99.90;;;;;;5090412;28;20492;-66
2023/12/17 04:13:09;;;;;;;1.05;0.85;;;11.20;99.90;;;;;;5089897;28;20416;-65
2023/12/17 04:15:35;;;;;;;0.47;0.47;;;10.00;99.90;;;;;;5090582;28;20040;-65
2023/12/17 04:18:00;;;;;;;0.28;0.28;;;9.40;99.90;;;;;;5090032;28;20066;-66
2023/12/17 04:20:26;;;;;;;0.55;0.55;;;7.90;99.90;;;;;;5090200;28;20135;-65
2023/12/17 04:22:52;;;;;;;0.20;0.20;;;8.10;99.90;;;;;;5090521;28;20046;-65
2023/12/17 04:25:18;;;;;;;0.50;0.50;;;9.20;99.90;;;;;;5083701;28;20480;-65
2023/12/17 04:27:43;;;;;;;0.47;0.47;;;8.30;99.90;;;;;;5071196;28;20045;-65
2023/12/17 04:30:10;;;;;;;0.32;0.32;;;8.90;99.90;;;;;;5091004;28;20488;-65
2023/12/17 04:32:36;;;;;;;0.50;0.50;;;8.80;99.90;;;;;;5089617;28;20095;-68
2023/12/17 04:35:03;;;;;;;0.63;0.57;;;9.80;99.90;;;;;;5079441;28;20032;-65
2023/12/17 04:37:29;;;;;;;0.57;0.57;;;9.80;99.90;;;;;;5093680;28;20560;-64
2023/12/17 04:39:55;;;;;;;1.27;1.17;;;9.40;99.90;;;;;;5067539;28;20067;-65
2023/12/17 04:42:21;;;;;;;0.85;0.85;;;9.90;99.90;;;;;;5092522;28;20044;-68
2023/12/17 04:44:46;;;;;;;1.75;1.13;;;10.20;99.90;;;;;;5093484;28;20164;-66
2023/12/17 04:47:12;;;;;;;0.40;0.40;;;9.60;99.90;;;;;;5093896;28;20048;-71
2023/12/17 04:49:38;;;;;;;1.00;1.00;;;8.50;99.90;;;;;;5092878;28;20044;-66
2023/12/17 04:52:04;;;;;;;0.68;0.60;;;8.00;99.90;;;;;;5093306;28;20040;-65
2023/12/17 04:54:29;;;;;;;0.80;0.80;;;10.30;99.90;;;;;;5092094;28;20075;-65
2023/12/17 04:56:55;;;;;;;0.80;0.55;;;8.20;99.90;;;;;;5092988;28;20128;-72
2023/12/17 04:59:24;;;;;;;0.85;0.55;;;11.00;99.90;;;;;;5092014;28;20039;-64
2023/12/17 05:01:49;;;;;;;0.57;0.55;;;9.10;99.90;;;;;;5091971;28;20146;-66
2023/12/17 05:04:16;;;;;;;0.60;0.60;;;10.00;99.90;;;;;;5091244;28;20539;-65
2023/12/17 05:06:42;;;;;;;1.08;0.80;;;10.70;99.90;;;;;;5091320;28;20121;-69
2023/12/17 05:09:08;;;;;;;;;;;10.50;99.90;;;;;;5093600;28;20131;-66
2023/12/17 05:11:35;;;;;;;7.20;1.20;;;11.00;99.90;;;;;;5091344;28;19923;-65
2023/12/17 05:14:00;;;;;;;0.20;0.20;;;7.80;99.90;;;;;;5092610;28;20048;-65
2023/12/17 05:16:26;;;;;;;1.67;1.23;;;10.40;99.90;;;;;;5091470;28;20051;-65
2023/12/17 05:18:52;;;;;;;7.63;0.98;;;10.30;99.90;;;;;;5092796;28;20109;-66
2023/12/17 05:21:17;;;;;;;0.60;0.60;;;10.80;99.90;;;;;;5092050;28;20050;-65
2023/12/17 05:23:43;;;;;;;0.47;0.47;;;10.60;99.90;;;;;;5092910;28;20491;-65
2023/12/17 05:26:09;;;;;;;0.45;0.45;;;8.30;99.90;;;;;;5091877;28;20121;-67
2023/12/17 05:28:37;;;;;;;0.75;0.75;;;8.50;99.90;;;;;;5080379;28;20193;-65
2023/12/17 05:31:04;;;;;;;6.47;0.98;;;9.20;99.90;;;;;;5092700;28;20123;-65
2023/12/17 05:33:29;;;;;;;1.52;1.45;;;8.40;99.90;;;;;;5092690;28;20704;-65
2023/12/17 05:35:55;;;;;;;0.73;0.60;;;8.10;99.90;;;;;;5091756;28;20036;-66
2023/12/17 05:38:21;;;;;;;1.83;0.70;;;10.10;99.90;;;;;;5072972;28;20040;-65
2023/12/17 05:40:47;;;;;;;0.40;0.40;;;10.50;99.90;;;;;;5086060;28;20059;-74
2023/12/17 05:43:13;;;;;;;0.68;0.68;;;9.00;99.90;;;;;;5066581;28;20047;-65
2023/12/17 05:45:39;;;;;;;0.70;0.50;;;10.20;99.90;;;;;;5092359;28;20044;-71
2023/12/17 05:48:07;;;;;;;3.30;1.55;;;10.70;99.90;;;;;;5091627;28;20397;-64
2023/12/17 05:50:33;;;;;;;0.75;0.75;;;8.10;99.90;;;;;;5092735;28;20431;-65
2023/12/17 05:52:58;;;;;;;1.25;1.17;;;11.00;99.90;;;;;;5093067;28;20127;-65
2023/12/17 05:55:24;;;;;;;1.23;1.13;;;8.40;99.90;;;;;;5091987;28;20091;-65
2023/12/17 05:57:51;;;;;;;0.60;0.60;;;10.10;99.90;;;;;;5092361;28;20454;-64
2023/12/17 06:00:17;;;;;;;1.25;0.80;;;8.20;99.90;;;;;;5091887;28;20083;-66
2023/12/17 06:02:43;;;;;;;1.75;1.15;;;9.30;99.90;;;;;;5085258;28;20048;-66
2023/12/17 06:05:09;;;;;;;0.50;0.50;;;9.70;99.90;;;;;;5085395;28;20063;-66
2023/12/17 06:07:34;;;;;;;0.65;0.65;;;7.90;99.90;;;;;;5079101;28;20083;-65
2023/12/17 06:10:00;;;;;;;0.45;0.45;;;8.10;99.90;;;;;;5091680;28;20079;-65
2023/12/17 06:12:26;;;;;;;1.08;0.98;;;8.20;99.90;;;;;;5079194;28;20115;-65
2023/12/17 06:14:51;;;;;;;0.60;0.60;;;9.30;99.90;;;;;;5091613;28;20463;-64
2023/12/17 06:17:17;;;;;;;1.25;1.08;;;9.10;99.90;;;;;;5085390;28;20040;-67
2023/12/17 06:19:44;;;;;;;3.15;1.80;;;;;;;;;;5071345;28;20045;-69
2023/12/17 06:22:15;;;;;;;2.03;0.90;;;10.70;99.90;;;;;;5071917;28;20488;-65
2023/12/17 06:24:41;;;;;;;2.47;1.48;;;9.60;99.90;;;;;;5071741;28;20049;-64
2023/12/17 06:27:12;;;;;;;2.88;0.93;;;10.00;99.90;;;;;;5070792;28;20044;-65
2023/12/17 06:29:38;;;;;;;1.08;0.95;;;8.90;99.90;;;;;;5084716;28;20051;-65
2023/12/17 06:32:04;;;;;;;3.00;1.17;;;10.70;99.90;;;;;;5080362;28;20042;-65
2023/12/17 06:34:30;;;;;;;2.67;2.47;;;10.10;99.90;;;;;;5078044;28;20189;-67
2023/12/17 06:36:55;;;;;;;0.65;0.65;;;10.10;99.90;;;;;;5091948;28;20140;-65
2023/12/17 06:39:21;;;;;;;1.58;1.30;;;8.30;99.90;;;;;;5091218;28;20428;-65
2023/12/17 06:41:47;;;;;;;1.58;1.42;;;10.60;99.90;;;;;;5091328;28;20404;-65
2023/12/17 06:44:15;;;;;;;1.55;1.33;;;10.60;99.90;;;;;;5077608;28;20086;-65
2023/12/17 06:46:40;;;;;;;1.40;1.30;;;10.30;99.90;;;;;;5090858;28;20455;-67
2023/12/17 06:49:06;;;;;;;1.10;1.02;;;9.90;99.90;;;;;;5089084;28;20055;-64
2023/12/17 06:51:32;;;;;;;0.82;0.82;;;10.90;99.90;;;;;;5071629;28;20040;-65
2023/12/17 06:53:57;;;;;;;1.55;1.02;;;10.30;99.90;;;;;;5071170;28;20098;-64
2023/12/17 06:56:23;;;;;;;0.30;0.30;;;10.40;99.90;;;;;;5071292;28;20037;-65
2023/12/17 06:58:48;;;;;;;4.15;2.03;;;9.30;99.90;;;;;;5069882;28;20127;-65
2023/12/17 07:01:14;;;;;;;0.77;0.73;;;10.60;99.90;;;;;;5071354;28;20079;-65
2023/12/17 07:03:40;;;;;;;1.05;0.95;;;10.00;99.90;;;;;;5071525;28;20416;-65
2023/12/17 07:06:11;;;;;;;3.47;1.02;;;8.60;99.90;;;;;;5071480;28;20060;-64
2023/12/17 07:08:37;;;;;;;1.00;0.93;;;10.70;99.90;;;;;;5072178;28;20048;-64
2023/12/17 07:11:02;;;;;;;;;;;7.50;99.90;;;;;;5071930;28;20059;-65
2023/12/17 07:13:28;;;;;;;0.93;0.90;;;8.50;99.90;;;;;;5071919;28;20011;-66
2023/12/17 07:15:54;;;;;;;1.40;1.30;;;8.20;99.90;;;;;;5071748;28;20094;-65
2023/12/17 07:18:20;;;;;;;0.60;0.60;;;8.60;99.90;;;;;;5071987;28;20416;-64
2023/12/17 07:20:47;;;;;;;1.40;1.30;;;7.90;99.90;;;;;;5071799;28;20052;-67
2023/12/17 07:23:13;;;;;;;1.15;1.05;;;10.90;99.90;;;;;;5072219;28;20059;-65
2023/12/17 07:25:38;;;;;;;13.50;0.90;;;11.20;99.90;;;;;;5071860;28;20404;-66
2023/12/17 07:28:04;;;;;;;4.70;1.50;;;10.20;99.90;;;;;;5071431;28;20044;-65
2023/12/17 07:30:30;;;;;;;3.25;0.60;;;10.50;99.90;;;;;;5071644;28;20051;-65
2023/12/17 07:32:56;;;;;;;0.50;0.50;;;7.90;99.90;;;;;;5072146;28;20041;-64
2023/12/17 07:35:21;;;;;;;2.53;1.98;;;7.90;99.90;;;;;;5066823;28;20059;-66
2023/12/17 07:37:47;;;;;;;1.00;1.00;;;11.10;99.90;;;;;;5072278;28;20143;-65
2023/12/17 07:40:13;;;;;;;1.48;1.38;;;10.40;99.90;;;;;;5074500;28;20048;-65
2023/12/17 07:42:38;;;;;;;2.20;1.33;;;11.00;99.90;;;;;;5076100;28;20080;-66
2023/12/17 07:45:05;;;;;;;2.38;1.73;;;9.30;99.90;;;;;;5073436;28;20054;-65
2023/12/17 07:47:32;;;;;;;;;;;10.60;99.90;;;;;;5062499;28;20495;-66
2023/12/17 07:49:58;;;;;;;1.58;1.33;;;10.30;99.90;;;;;;5073697;28;19924;-65
2023/12/17 07:52:23;;;;;;;1.75;0.98;;;7.80;99.90;;;;;;5076758;28;20060;-66
2023/12/17 07:54:49;;;;;;;1.85;1.60;;;10.10;99.90;;;;;;5077248;28;20068;-64
2023/12/17 07:57:15;;;;;;;0.40;0.40;;;10.80;99.90;;;;;;5071546;28;20044;-65
2023/12/17 07:59:40;;;;;;;2.30;1.25;;;10.60;99.90;;;;;;5077789;28;20043;-66
2023/12/17 08:02:06;;;;;;;0.85;0.75;;;9.20;99.90;;;;;;5073481;28;20080;-64
2023/12/17 08:04:34;;;;;;;0.50;0.50;;;8.10;99.90;;;;;;5077032;28;20045;-66
2023/12/17 08:07:00;;;;;;;0.80;0.30;;;7.60;99.90;;;;;;5075352;28;20051;-65
2023/12/17 08:09:25;;;;;;;2.50;1.88;;;10.60;99.90;;;;;;5077375;28;20041;-64
2023/12/17 08:11:51;;;;;;;4.60;1.75;;;7.60;99.90;;;;;;5080799;28;20435;-67
2023/12/17 08:14:16;;;;;;;2.53;1.15;;;9.60;99.90;;;;;;5081334;28;20480;-65
2023/12/17 08:16:44;;;;;;;1.02;1.02;;;7.30;99.90;;;;;;5077484;28;20101;-65
2023/12/17 08:19:09;;;;;;;4.82;3.28;;;11.20;99.90;;;;;;5063399;28;20040;-66
2023/12/17 08:21:35;;;;;;;1.40;1.30;;;10.10;99.90;;;;;;5075239;28;20097;-65
2023/12/17 08:24:00;;;;;;;1.02;1.00;;;8.00;99.90;;;;;;5075360;28;20045;-64
2023/12/17 08:26:26;;;;;;;9.90;5.75;;;7.40;99.90;;;;;;5076634;28;20048;-64
2023/12/17 08:28:52;;;;;;;2.38;1.90;;;9.30;99.90;;;;;;5071030;28;20068;-65
2023/12/17 08:31:17;;;;;;;3.25;1.45;;;9.40;99.90;;;;;;5076644;28;20040;-64
2023/12/17 08:33:44;;;;;;;1.38;1.02;;;7.50;99.90;;;;;;5080939;28;20041;-64
2023/12/17 08:36:10;;;;;;;1.67;1.27;;;9.40;99.90;;;;;;5087231;28;20047;-65
2023/12/17 08:38:36;;;;;;;1.83;1.42;;;7.20;99.90;;;;;;5074022;28;20048;-65
2023/12/17 08:41:02;;;;;;;3.42;1.13;;;10.30;99.90;;;;;;5072668;28;20098;-65
2023/12/17 08:43:27;;;;;;;1.30;1.20;;;10.90;99.90;;;;;;5071809;28;20040;-64
2023/12/17 08:45:53;;;;;;;2.28;1.83;;;10.70;99.90;;;;;;5073967;28;20123;-66
2023/12/17 08:48:19;;;;;;;1.15;1.05;;;8.90;99.90;;;;;;5093360;28;20121;-65
2023/12/17 08:50:44;;;;;;;1.60;1.23;;;10.50;99.90;;;;;;5091539;28;20048;-65
2023/12/17 08:53:10;;;;;;;1.98;1.13;;;7.80;99.90;;;;;;5093589;28;20044;-65
2023/12/17 08:55:36;;;;;;;2.50;1.85;;;8.50;99.90;;;;;;5092326;28;20051;-66
2023/12/17 08:58:01;;;;;;;1.85;1.45;;;9.20;99.90;;;;;;5093559;28;20056;-65
2023/12/17 09:00:27;;;;;;;1.55;1.15;;;5.20;99.90;;;;;;5092058;28;20055;-65
2023/12/17 09:02:52;;;;;;;2.28;1.80;;;10.50;99.90;;;;;;5092965;28;20052;-66
2023/12/17 09:05:18;;;;;;;1.52;1.17;;;10.00;99.90;;;;;;5091800;28;20455;-64
2023/12/17 09:07:44;;;;;;;1.95;1.85;;;7.30;99.90;;;;;;5092870;28;20587;-64
2023/12/17 09:10:10;;;;;;;4.88;2.70;;;9.70;99.90;;;;;;5092558;28;20131;-64
2023/12/17 09:12:36;;;;;;;0.60;0.60;;;9.90;99.90;;;;;;5093395;28;20130;-65
2023/12/17 09:15:02;;;;;;;1.02;0.98;;;9.50;99.90;;;;;;5091441;28;20048;-65
2023/12/17 09:17:27;;;;;;;1.40;1.30;;;7.90;99.90;;;;;;5092864;28;20048;-65
2023/12/17 09:19:53;;;;;;;1.38;1.30;;;10.40;99.90;;;;;;5092071;28;20113;-65
2023/12/17 09:22:19;;;;;;;15.95;3.45;;;10.40;99.90;;;;;;5092163;28;20043;-64
2023/12/17 09:24:44;;;;;;;24.52;1.52;;;9.00;99.90;;;;;;5090593;28;20135;-65
2023/12/17 09:27:10;;;;;;;0.98;0.93;;;9.90;99.90;;;;;;5081839;28;20051;-65
2023/12/17 09:29:36;;;;;;;3.28;1.50;;;8.60;99.90;;;;;;5090526;28;20044;-68
2023/12/17 09:32:01;;;;;;;1.45;1.00;;;8.00;99.90;;;;;;5081863;28;20503;-64
2023/12/17 09:34:27;;;;;;;3.45;1.95;;;;;;;;;;5091813;28;20480;-64
2023/12/17 09:36:53;;;;;;;;;;;10.40;99.90;;;;;;5093712;28;20692;-64
2023/12/17 09:39:19;;;;;;;1.17;1.17;;;8.10;99.90;;;;;;5077749;28;19924;-65
2023/12/17 09:41:44;;;;;;;0.68;0.65;;;10.40;99.90;;;;;;5073250;28;20671;-64
2023/12/17 09:44:10;;;;;;;1.65;1.00;;;10.20;99.90;;;;;;5072921;28;20059;-66
2023/12/17 09:46:36;;;;;;;1.52;0.65;;;10.50;99.90;;;;;;5072950;28;20067;-64
2023/12/17 09:49:02;;;;;;;1.67;0.93;;;10.10;99.90;;;;;;5073839;28;20052;-65
2023/12/17 09:51:28;;;;;;;11.32;1.13;;;8.30;99.90;;;;;;5073546;28;20403;-64
2023/12/17 09:53:57;;;;;;;26.40;3.15;;;8.50;99.90;;;;;;5073570;28;20537;-65
2023/12/17 09:56:23;;;;;;;1.63;1.52;;;9.80;99.90;;;;;;5073278;28;20028;-64
2023/12/17 09:58:48;;;;;;;;;;;9.50;99.90;;;;;;5074002;28;20045;-65
2023/12/17 10:01:14;;;;;;;3.83;2.40;;;8.70;99.90;;;;;;5073161;28;19967;-65
2023/12/17 10:03:40;;;;;;;0.43;0.43;;;8.60;99.90;;;;;;5073896;28;20055;-66
2023/12/17 10:06:06;;;;;;;1.48;1.38;;;8.50;99.90;;;;;;5073197;28;20484;-65
2023/12/17 10:08:32;;;;;;;;;;;9.60;99.90;;;;;;5075003;28;20052;-66
2023/12/17 10:10:58;;;;;;;1.33;1.23;;;8.50;99.90;;;;;;5073165;28;19920;-66
2023/12/17 10:13:24;;;;;;;5.93;1.77;;;10.20;99.90;;;;;;5073847;28;20119;-64
2023/12/17 10:15:51;;;;;;;1.48;1.35;;;9.90;99.90;;;;;;5072213;28;20090;-64
2023/12/17 10:18:17;;;;;;;10.23;2.50;;;8.80;99.90;;;;;;5073388;28;20095;-65
2023/12/17 10:20:44;;;;;;;;;;;8.80;99.90;;;;;;5073061;28;20056;-65
2023/12/17 10:23:09;;;;;;;1.90;1.55;;;8.50;99.90;;;;;;5072084;28;19921;-64
2023/12/17 10:25:35;;;;;;;3.25;1.75;;;10.50;99.90;;;;;;5071844;28;20440;-63
2023/12/17 10:28:01;;;;;;;2.00;1.55;;;9.90;99.90;;;;;;5084939;28;20052;-65
2023/12/17 10:30:29;;;;;;;1.55;1.45;;;8.70;99.90;;;;;;5080651;28;20080;-65
2023/12/17 10:32:56;;;;;;;14.40;1.35;;;10.10;99.90;;;;;;5077460;28;20408;-65
2023/12/17 10:35:25;;;;;;;2.22;1.63;;;10.10;99.90;;;;;;5092157;28;20047;-65
2023/12/17 10:37:58;;;;;;;0.77;0.77;;;9.60;99.90;;;;;;5090804;28;20056;-64
2023/12/17 10:40:25;;;;;;;6.07;1.75;;;9.90;99.90;;;;;;5081472;28;20052;-66
2023/12/17 10:42:53;;;;;;;1.23;1.10;;;9.80;99.90;;;;;;5084642;28;20118;-66
2023/12/17 10:45:20;;;;;;;0.82;0.80;;;9.60;99.90;;;;;;5071519;28;20040;-64
2023/12/17 10:47:51;;;;;;;1.90;1.55;;;10.50;99.90;;;;;;5072050;28;20044;-65
2023/12/17 10:50:18;;;;;;;3.72;2.45;;;8.70;99.90;;;;;;5071764;28;20052;-65
2023/12/17 10:52:45;;;;;;;1.05;0.95;;;10.40;99.90;;;;;;5071160;28;20498;-64
2023/12/17 10:55:11;;;;;;;1.38;1.23;;;9.80;99.90;;;;;;5083214;28;20093;-65
2023/12/17 10:57:39;;;;;;;2.05;1.92;;;10.00;99.90;;;;;;5073097;28;20052;-64
2023/12/17 11:00:07;;;;;;;1.08;1.00;;;10.80;99.90;;;;;;5072297;28;20048;-64
2023/12/17 11:02:33;;;;;;;1.52;1.33;;;8.60;99.90;;;;;;5071560;28;20048;-67
2023/12/17 11:04:59;;;;;;;2.08;1.15;;;10.00;99.90;;;;;;5070851;28;20093;-65
2023/12/17 11:07:26;;;;;;;1.83;1.48;;;10.20;99.90;;;;;;5072656;28;20131;-65
2023/12/17 11:09:52;;;;;;;5.15;1.83;;;8.70;99.90;;;;;;5072307;28;20067;-67
2023/12/17 11:12:20;;;;;;;2.47;1.65;;;11.10;99.90;;;;;;5072210;28;20431;-65
2023/12/17 11:14:46;;;;;;;3.53;1.92;;;10.20;99.90;;;;;;5053724;28;20044;-66
2023/12/17 11:17:14;;;;;;;1.23;1.17;;;10.20;99.90;;;;;;5071626;28;20048;-67
2023/12/17 11:19:59;;;;;;;4.88;1.45;;;10.00;99.90;;;;;;5071426;28;20044;-65
2023/12/17 11:22:25;;;;;;;2.00;1.65;;;9.20;99.90;;;;;;5060758;28;20060;-65
2023/12/17 11:24:55;;;;;;;5.07;2.65;;;10.10;99.90;;;;;;5071738;28;20047;-63
2023/12/17 11:27:22;;;;;;;2.20;2.00;;;10.30;99.90;;;;;;5070266;28;20039;-65
2023/12/17 11:29:55;;;;;;;1.55;1.45;;;8.90;99.90;;;;;;5070937;28;20530;-67
2023/12/17 11:32:26;;;;;;;1.20;1.10;;;8.70;99.90;;;;;;5071298;28;20087;-64
2023/12/17 11:34:53;;;;;;;1.52;1.45;;;10.40;99.90;;;;;;5076104;28;20043;-65
2023/12/17 11:37:20;;;;;;;4.97;1.92;;;9.80;99.90;;;;;;5079039;28;20044;-65
2023/12/17 11:39:47;;;;;;;3.25;1.92;;;10.40;99.90;;;;;;5069802;28;20086;-64
2023/12/17 11:42:14;;;;;;;4.88;3.05;;;10.60;99.90;;;;;;5069080;28;20045;-66
2023/12/17 11:44:47;;;;;;;1.98;1.08;;;10.00;99.90;;;;;;5071409;28;20138;-64
2023/12/17 11:47:13;;;;;;;5.93;2.70;;;9.40;99.90;;;;;;5074634;28;20037;-69
2023/12/17 11:49:39;;;;;;;1.45;1.35;;;10.30;99.90;;;;;;5062463;28;20048;-64
2023/12/17 11:52:13;;;;;;;1.35;1.17;;;11.00;99.90;;;;;;5075132;28;20056;-65
2023/12/17 11:54:41;;;;;;;0.55;0.55;;;9.80;99.90;;;;;;5083173;28;20043;-64
2023/12/17 11:57:19;;;;;;;1.33;1.23;;;9.70;99.90;;;;;;5081524;28;20462;-65
2023/12/17 11:59:44;;;;;;;1.13;1.02;;;9.60;99.90;;;;;;5084925;28;20047;-65
2023/12/17 12:02:11;;;;;;;3.50;3.00;;;9.50;99.90;;;;;;5074762;28;20048;-64
2023/12/17 12:04:40;;;;;;;;;;;9.80;99.90;;;;;;5075061;28;20056;-69
2023/12/17 12:07:05;;;;;;;1.52;1.35;;;10.50;99.90;;;;;;5091682;28;19926;-64
2023/12/17 12:09:31;;;;;;;4.18;1.90;;;9.00;99.90;;;;;;5095016;28;20403;-64
2023/12/17 12:11:57;;;;;;;1.83;1.15;;;9.30;99.90;;;;;;5094050;28;20523;-67
2023/12/17 12:14:23;;;;;;;0.63;0.63;;;9.30;99.90;;;;;;5084960;28;20514;-66
2023/12/17 12:16:48;;;;;;;11.13;3.20;;;9.00;99.90;;;;;;5074471;28;20032;-65
2023/12/17 12:19:14;;;;;;;21.95;1.58;;;9.00;99.90;;;;;;5084759;28;20044;-64
2023/12/17 12:21:40;;;;;;;1.02;0.93;;;9.20;99.90;;;;;;5077296;28;20047;-65
2023/12/17 12:24:10;;;;;;;0.60;0.60;;;10.20;99.90;;;;;;5074647;28;20041;-64
2023/12/17 12:26:36;;;;;;;3.63;2.50;;;9.10;99.90;;;;;;5074896;28;20041;-66
2023/12/17 12:29:06;;;;;;;1.52;1.42;;;9.50;99.90;;;;;;5074673;28;20393;-67
2023/12/17 12:31:32;;;;;;;3.50;1.83;;;9.00;99.90;;;;;;5075079;28;20049;-66
2023/12/17 12:34:00;;;;;;;0.65;0.50;;;9.40;99.90;;;;;;5074687;28;20127;-64
2023/12/17 12:36:41;;;;;;;3.95;1.92;;;10.10;99.90;;;;;;5091426;28;20032;-64
2023/12/17 12:39:07;;;;;;;2.00;0.90;;;9.40;99.90;;;;;;5079847;28;20064;-64
2023/12/17 12:41:32;;;;;;;;;;;9.20;99.90;;;;;;5086282;28;20051;-65
2023/12/17 12:43:59;;;;;;;3.13;1.05;;;9.50;99.90;;;;;;5074088;28;19921;-64
2023/12/17 12:46:26;;;;;;;1.70;1.63;;;9.80;99.90;;;;;;5075012;28;20043;-67
2023/12/17 12:48:56;;;;;;;8.07;1.60;;;9.80;99.90;;;;;;5074477;28;20412;-69